createdAt,value
2017-08-18T00:00:59.610Z,46.63
2017-08-18T00:03:27.982Z,68.47
2017-08-18T00:05:56.778Z,47.90
2017-08-18T00:08:25.126Z,41.03
2017-08-18T00:10:53.502Z,40.97
2017-08-18T00:13:22.959Z,48.93
2017-08-18T00:15:51.345Z,54.67
2017-08-18T00:18:19.707Z,37.43
2017-08-18T00:20:48.604Z,42.20
2017-08-18T00:23:16.945Z,44.77
2017-08-18T00:25:46.077Z,48.07
2017-08-18T00:28:15.063Z,43.20
2017-08-18T00:30:43.409Z,41.70
2017-08-18T00:33:12.532Z,38.17
2017-08-18T00:35:41.305Z,49.83
2017-08-18T00:38:09.664Z,35.90
2017-08-18T00:40:38.835Z,53.10
2017-08-18T00:43:07.569Z,41.30
2017-08-18T00:45:36.036Z,38.80
2017-08-18T00:48:04.391Z,45.87
2017-08-18T00:50:33.552Z,37.03
2017-08-18T00:53:01.929Z,45.47
2017-08-18T00:55:30.312Z,49.50
2017-08-18T00:57:58.948Z,43.83
2017-08-18T01:00:27.313Z,39.57
2017-08-18T01:02:55.666Z,44.13
2017-08-18T01:05:24.310Z,43.77
2017-08-18T01:07:52.681Z,53.73
2017-08-18T01:10:21.039Z,45.90
2017-08-18T01:12:49.987Z,54.13
2017-08-18T01:15:18.345Z,49.10
2017-08-18T01:17:46.693Z,44.73
2017-08-18T01:20:16.433Z,53.20
2017-08-18T01:22:44.806Z,49.40
2017-08-18T01:25:13.187Z,61.87
2017-08-18T01:27:41.854Z,47.43
2017-08-18T01:30:10.251Z,45.60
2017-08-18T01:32:38.625Z,50.87
2017-08-18T01:35:07.552Z,49.87
2017-08-18T01:37:35.899Z,45.40
2017-08-18T01:40:04.267Z,48.90
2017-08-18T01:42:33.210Z,49.83
2017-08-18T01:45:01.574Z,54.50
2017-08-18T01:47:29.896Z,45.40
2017-08-18T01:49:58.522Z,49.00
2017-08-18T01:52:26.870Z,46.23
2017-08-18T01:54:55.265Z,59.33
2017-08-18T01:57:24.302Z,51.63
2017-08-18T01:59:52.666Z,50.70
2017-08-18T02:02:20.993Z,46.67
2017-08-18T02:04:49.644Z,41.27
2017-08-18T02:07:17.990Z,48.20
2017-08-18T02:09:46.348Z,49.07
2017-08-18T02:12:15.016Z,48.93
2017-08-18T02:14:43.381Z,46.90
2017-08-18T02:17:11.738Z,42.33
2017-08-18T02:19:40.535Z,46.17
2017-08-18T02:22:08.883Z,52.10
2017-08-18T02:24:37.235Z,42.67
2017-08-18T02:27:05.873Z,46.67
2017-08-18T02:29:34.233Z,53.77
2017-08-18T02:32:03.366Z,47.00
2017-08-18T02:34:32.150Z,43.73
2017-08-18T02:37:00.522Z,49.73
2017-08-18T02:39:28.894Z,44.70
2017-08-18T02:41:57.683Z,44.83
2017-08-18T02:44:26.050Z,43.97
2017-08-18T02:46:54.410Z,54.50
2017-08-18T02:49:23.235Z,50.90
2017-08-18T02:51:51.580Z,49.70
2017-08-18T02:54:20.698Z,54.87
2017-08-18T02:56:49.494Z,41.80
2017-08-18T02:59:17.871Z,47.77
2017-08-18T03:01:46.225Z,55.03
2017-08-18T03:04:15.030Z,47.83
2017-08-18T03:06:43.381Z,56.83
2017-08-18T03:09:11.740Z,51.27
2017-08-18T03:11:40.588Z,43.60
2017-08-18T03:14:08.935Z,46.83
2017-08-18T03:16:37.307Z,43.53
2017-08-18T03:19:05.943Z,41.80
2017-08-18T03:21:34.301Z,39.23
2017-08-18T03:24:02.632Z,43.77
2017-08-18T03:26:31.481Z,47.67
2017-08-18T03:28:59.818Z,39.07
2017-08-18T03:31:28.157Z,47.10
2017-08-18T03:33:56.924Z,43.87
2017-08-18T03:36:25.302Z,43.77
2017-08-18T03:38:53.667Z,47.53
2017-08-18T03:41:22.489Z,45.07
2017-08-18T03:43:50.879Z,37.93
2017-08-18T03:46:19.230Z,39.97
2017-08-18T03:48:47.991Z,50.47
2017-08-18T03:51:16.347Z,44.50
2017-08-18T03:53:44.713Z,69.03
2017-08-18T03:56:13.347Z,45.37
2017-08-18T03:58:41.701Z,40.23
2017-08-18T04:01:10.038Z,41.60
2017-08-18T04:03:38.720Z,41.33
2017-08-18T04:06:07.119Z,42.07
2017-08-18T04:08:35.490Z,37.60
2017-08-18T04:11:04.577Z,46.57
2017-08-18T04:13:32.926Z,40.23
2017-08-18T04:16:01.274Z,41.83
2017-08-18T04:18:29.893Z,35.03
2017-08-18T04:20:58.251Z,41.90
2017-08-18T04:23:26.626Z,37.60
2017-08-18T04:25:55.304Z,36.70
2017-08-18T04:28:23.648Z,36.67
2017-08-18T04:30:52.018Z,35.67
2017-08-18T04:33:20.896Z,38.63
2017-08-18T04:35:49.264Z,32.77
2017-08-18T04:38:17.599Z,40.80
2017-08-18T04:40:46.248Z,35.03
2017-08-18T04:43:14.602Z,31.57
2017-08-18T04:45:42.937Z,33.37
2017-08-18T04:48:11.791Z,29.20
2017-08-18T04:50:40.173Z,33.63
2017-08-18T04:53:08.520Z,29.40
2017-08-18T04:55:37.384Z,26.10
2017-08-18T04:58:05.730Z,29.90
2017-08-18T05:00:34.060Z,32.00
2017-08-18T05:03:02.678Z,26.90
2017-08-18T05:05:31.022Z,29.10
2017-08-18T05:07:59.379Z,29.43
2017-08-18T05:10:28.143Z,31.00
2017-08-18T05:12:56.488Z,27.43
2017-08-18T05:15:25.609Z,27.03
2017-08-18T05:17:54.316Z,23.90
2017-08-18T05:20:22.680Z,26.73
2017-08-18T05:22:51.022Z,23.83
2017-08-18T05:25:19.655Z,30.00
2017-08-18T05:27:47.990Z,30.87
2017-08-18T05:30:17.129Z,20.00
2017-08-18T05:32:45.912Z,21.07
2017-08-18T05:35:14.271Z,22.00
2017-08-18T05:37:42.620Z,22.40
2017-08-18T05:40:11.753Z,27.13
2017-08-18T05:42:40.127Z,18.60
2017-08-18T05:45:08.476Z,22.80
2017-08-18T05:47:37.351Z,19.73
2017-08-18T05:50:05.736Z,19.70
2017-08-18T05:52:34.095Z,20.47
2017-08-18T05:55:02.762Z,23.20
2017-08-18T05:57:31.143Z,21.73
2017-08-18T05:59:59.510Z,27.87
2017-08-18T06:02:28.323Z,20.83
2017-08-18T06:04:56.671Z,23.80
2017-08-18T06:07:25.019Z,29.50
2017-08-18T06:09:53.665Z,19.77
2017-08-18T06:12:22.012Z,21.70
2017-08-18T06:14:50.358Z,20.20
2017-08-18T06:17:19.008Z,23.60
2017-08-18T06:19:47.378Z,21.10
2017-08-18T06:22:15.737Z,17.23
2017-08-18T06:24:44.701Z,23.43
2017-08-18T06:27:13.078Z,23.80
2017-08-18T06:29:41.433Z,25.47
2017-08-18T06:32:10.085Z,17.10
2017-08-18T06:34:38.446Z,17.40
2017-08-18T06:37:06.849Z,19.53
2017-08-18T06:39:35.717Z,23.20
2017-08-18T06:42:04.058Z,22.83
2017-08-18T06:44:32.407Z,14.53
2017-08-18T06:47:01.370Z,15.80
2017-08-18T06:49:29.711Z,13.47
2017-08-18T06:51:58.053Z,17.50
2017-08-18T06:54:26.685Z,13.43
2017-08-18T06:56:55.032Z,14.40
2017-08-18T06:59:23.395Z,15.70
2017-08-18T07:01:52.069Z,12.90
2017-08-18T07:04:20.407Z,11.50
2017-08-18T07:06:49.552Z,14.43
2017-08-18T07:09:18.751Z,10.60
2017-08-18T07:11:47.076Z,10.00
2017-08-18T07:14:16.207Z,23.67
2017-08-18T07:16:45.005Z,12.17
2017-08-18T07:19:13.351Z,16.30
2017-08-18T07:21:41.717Z,10.17
2017-08-18T07:24:10.441Z,10.07
2017-08-18T07:26:38.793Z,11.87
2017-08-18T07:29:07.929Z,13.13
2017-08-18T07:31:36.864Z,10.83
2017-08-18T07:34:05.231Z,12.50
2017-08-18T07:36:33.703Z,11.13
2017-08-18T07:39:02.567Z,11.70
2017-08-18T07:41:31.093Z,11.40
2017-08-18T07:43:59.438Z,12.30
2017-08-18T07:46:28.124Z,15.10
2017-08-18T07:48:56.488Z,10.70
2017-08-18T07:51:24.835Z,12.23
2017-08-18T07:53:54.560Z,11.50
2017-08-18T07:56:22.932Z,18.00
2017-08-18T07:58:51.277Z,14.93
2017-08-18T08:01:19.894Z,13.27
2017-08-18T08:03:48.256Z,18.23
2017-08-18T08:06:16.626Z,18.77
2017-08-18T08:08:45.287Z,13.00
2017-08-18T08:11:13.690Z,14.80
2017-08-18T08:13:42.076Z,18.60
2017-08-18T08:16:10.957Z,20.57
2017-08-18T08:18:39.358Z,12.63
2017-08-18T08:21:07.706Z,13.50
2017-08-18T08:23:36.392Z,13.60
2017-08-18T08:26:04.819Z,16.50
2017-08-18T08:28:33.939Z,28.30
2017-08-18T08:31:02.745Z,16.80
2017-08-18T08:33:31.131Z,12.40
2017-08-18T08:35:59.491Z,13.47
2017-08-18T08:38:28.634Z,10.43
2017-08-18T08:40:56.977Z,10.80
2017-08-18T08:43:56.294Z,9.70
2017-08-18T08:46:24.639Z,9.23
2017-08-18T08:48:52.976Z,9.60
2017-08-18T08:51:21.763Z,10.93
2017-08-18T08:53:50.932Z,22.47
2017-08-18T08:56:19.316Z,11.53
2017-08-18T08:58:48.181Z,10.93
2017-08-18T09:01:16.555Z,11.60
2017-08-18T09:03:44.908Z,10.37
2017-08-18T09:06:13.618Z,12.80
2017-08-18T09:08:41.996Z,18.10
2017-08-18T09:11:10.377Z,16.20
2017-08-18T09:13:39.017Z,9.67
2017-08-18T09:16:07.370Z,16.13
2017-08-18T09:18:35.732Z,9.23
2017-08-18T09:21:05.045Z,9.67
2017-08-18T09:23:33.407Z,9.10
2017-08-18T09:26:01.764Z,9.30
2017-08-18T09:28:30.607Z,9.17
2017-08-18T09:30:58.962Z,13.83
2017-08-18T09:33:27.351Z,7.50
2017-08-18T09:35:56.216Z,8.00
2017-08-18T09:38:24.549Z,14.17
2017-08-18T09:40:52.920Z,9.23
2017-08-18T09:43:21.983Z,8.23
2017-08-18T09:45:50.368Z,9.73
2017-08-18T09:48:37.086Z,7.30
2017-08-18T09:51:23.196Z,8.80
2017-08-18T09:54:09.660Z,12.30
2017-08-18T09:56:55.589Z,9.97
2017-08-18T09:59:24.461Z,21.80
2017-08-18T10:01:52.816Z,7.50
2017-08-18T10:04:21.224Z,8.80
2017-08-18T10:06:50.104Z,7.00
2017-08-18T10:09:18.484Z,10.07
2017-08-18T10:11:46.865Z,7.97
2017-08-18T10:14:15.515Z,9.40
2017-08-18T10:16:43.864Z,14.63
2017-08-18T10:19:12.279Z,11.53
2017-08-18T10:21:41.403Z,7.97
2017-08-18T10:24:09.780Z,8.63
2017-08-18T10:26:38.143Z,8.20
2017-08-18T10:29:07.051Z,10.60
2017-08-18T10:31:35.427Z,14.60
2017-08-18T10:34:03.778Z,20.70
2017-08-18T10:36:32.535Z,10.67
2017-08-18T10:39:00.919Z,19.03
2017-08-18T10:41:29.289Z,11.50
2017-08-18T10:43:58.110Z,8.87
2017-08-18T10:46:26.459Z,8.63
2017-08-18T10:48:55.423Z,8.57
2017-08-18T10:51:24.071Z,8.60
2017-08-18T10:53:52.455Z,8.13
2017-08-18T10:56:20.839Z,11.83
2017-08-18T10:58:49.647Z,8.40
2017-08-18T11:01:18.006Z,9.63
2017-08-18T11:03:46.340Z,7.30
2017-08-18T11:06:15.078Z,10.70
2017-08-18T11:08:43.447Z,23.53
2017-08-18T11:11:12.562Z,8.17
2017-08-18T11:13:41.176Z,14.20
2017-08-18T11:16:09.532Z,7.50
2017-08-18T11:18:37.903Z,9.80
2017-08-18T11:21:06.673Z,14.57
2017-08-18T11:23:35.018Z,7.80
2017-08-18T11:26:03.358Z,8.10
2017-08-18T11:28:32.248Z,8.73
2017-08-18T11:31:00.617Z,8.23
2017-08-18T11:33:28.974Z,15.27
2017-08-18T11:35:57.691Z,8.17
2017-08-18T11:38:26.090Z,8.20
2017-08-18T11:40:54.463Z,7.17
2017-08-18T11:43:23.144Z,6.80
2017-08-18T11:45:51.489Z,8.90
2017-08-18T11:48:20.631Z,8.47
2017-08-18T11:50:49.703Z,20.23
2017-08-18T11:53:18.087Z,8.60
2017-08-18T11:55:46.428Z,9.20
2017-08-18T11:58:15.270Z,16.60
2017-08-18T12:00:43.654Z,7.00
2017-08-18T12:03:11.999Z,8.00
2017-08-18T12:05:40.629Z,11.33
2017-08-18T12:08:08.971Z,9.00
2017-08-18T12:10:37.320Z,7.00
2017-08-18T12:13:07.174Z,9.20
2017-08-18T12:15:35.567Z,8.00
2017-08-18T12:18:03.915Z,7.23
2017-08-18T12:20:32.611Z,8.80
2017-08-18T12:23:00.946Z,7.50
2017-08-18T12:25:29.277Z,10.17
2017-08-18T12:27:58.060Z,8.00
2017-08-18T12:30:26.443Z,12.37
2017-08-18T12:32:54.797Z,7.27
2017-08-18T12:35:23.687Z,7.83
2017-08-18T12:37:52.067Z,10.50
2017-08-18T12:40:20.447Z,7.77
2017-08-18T12:42:49.085Z,6.97
2017-08-18T12:45:17.430Z,7.73
2017-08-18T12:47:45.805Z,8.63
2017-08-18T12:50:14.493Z,5.77
2017-08-18T12:52:42.858Z,6.00
2017-08-18T12:55:11.202Z,6.23
2017-08-18T12:57:40.254Z,6.20
2017-08-18T13:00:08.604Z,6.40
2017-08-18T13:02:36.964Z,6.73
2017-08-18T13:05:05.718Z,6.60
2017-08-18T13:07:34.096Z,7.93
2017-08-18T13:10:02.458Z,5.73
2017-08-18T13:12:31.089Z,7.37
2017-08-18T13:14:59.438Z,5.63
2017-08-18T13:17:27.798Z,5.97
2017-08-18T13:19:56.799Z,6.10
2017-08-18T13:22:25.192Z,6.73
2017-08-18T13:24:53.557Z,5.40
2017-08-18T13:27:22.417Z,6.60
2017-08-18T13:29:50.758Z,5.53
2017-08-18T13:32:19.113Z,5.17
2017-08-18T13:34:47.862Z,4.30
2017-08-18T13:37:16.260Z,10.60
2017-08-18T13:39:44.639Z,11.53
2017-08-18T13:42:13.365Z,4.40
2017-08-18T13:44:41.733Z,4.57
2017-08-18T13:47:10.084Z,4.33
2017-08-18T13:49:38.977Z,5.33
2017-08-18T13:52:07.326Z,5.90
2017-08-18T13:54:35.650Z,9.93
2017-08-18T13:57:04.427Z,4.77
2017-08-18T13:59:32.779Z,8.20
2017-08-18T14:02:01.886Z,7.73
2017-08-18T14:04:31.407Z,6.03
2017-08-18T14:06:59.734Z,7.13
2017-08-18T14:09:28.093Z,15.10
2017-08-18T14:11:56.758Z,3.13
2017-08-18T14:14:25.108Z,3.40
2017-08-18T14:16:53.491Z,3.90
2017-08-18T14:19:22.502Z,5.17
2017-08-18T14:21:50.951Z,3.70
2017-08-18T14:24:19.306Z,3.33
2017-08-18T14:26:53.883Z,3.13
2017-08-18T14:29:22.497Z,4.03
2017-08-18T14:31:50.850Z,6.63
2017-08-18T14:34:19.551Z,3.87
2017-08-18T14:36:47.919Z,2.87
2017-08-18T14:39:16.264Z,4.43
2017-08-18T14:41:45.766Z,3.27
2017-08-18T14:44:14.129Z,4.20
2017-08-18T14:46:42.487Z,3.23
2017-08-18T14:49:11.476Z,2.83
2017-08-18T14:51:39.844Z,3.37
2017-08-18T14:54:08.207Z,5.27
2017-08-18T14:56:36.928Z,3.00
2017-08-18T14:59:05.287Z,3.70
2017-08-18T15:01:33.981Z,2.90
2017-08-18T15:04:03.423Z,3.03
2017-08-18T15:06:31.791Z,3.97
2017-08-18T15:09:00.150Z,4.27
2017-08-18T15:11:29.095Z,4.63
2017-08-18T15:13:57.455Z,3.07
2017-08-18T15:16:25.805Z,3.87
2017-08-18T15:18:54.435Z,3.63
2017-08-18T15:21:23.543Z,6.10
2017-08-18T15:23:52.670Z,3.30
2017-08-18T15:26:21.439Z,3.07
2017-08-18T15:28:49.783Z,8.10
2017-08-18T15:31:18.131Z,8.10
2017-08-18T15:33:47.297Z,5.60
2017-08-18T15:36:15.642Z,3.27
2017-08-18T15:38:44.781Z,3.27
2017-08-18T15:41:13.772Z,4.67
2017-08-18T15:43:42.104Z,5.17
2017-08-18T15:46:10.447Z,3.93
2017-08-18T15:48:39.206Z,3.10
2017-08-18T15:51:07.551Z,8.40
2017-08-18T15:53:35.893Z,11.70
2017-08-18T15:56:04.799Z,4.97
2017-08-18T15:58:33.164Z,3.63
2017-08-18T16:01:01.511Z,5.93
2017-08-18T16:03:30.127Z,4.93
2017-08-18T16:05:58.468Z,4.37
2017-08-18T16:08:26.830Z,5.27
2017-08-18T16:10:55.572Z,7.57
2017-08-18T16:13:23.946Z,5.40
2017-08-18T16:15:52.286Z,4.10
2017-08-18T16:18:21.042Z,5.20
2017-08-18T16:20:49.420Z,5.63
2017-08-18T16:23:17.779Z,7.00
2017-08-18T16:25:46.487Z,6.63
2017-08-18T16:28:14.893Z,4.27
2017-08-18T16:30:43.273Z,4.93
2017-08-18T16:33:12.918Z,8.73
2017-08-18T16:35:41.255Z,4.27
2017-08-18T16:38:10.399Z,6.70
2017-08-18T16:40:39.087Z,4.33
2017-08-18T16:43:07.500Z,3.90
2017-08-18T16:45:35.871Z,5.20
2017-08-18T16:48:04.507Z,9.20
2017-08-18T16:50:32.859Z,6.57
2017-08-18T16:53:01.220Z,6.00
2017-08-18T16:55:29.879Z,4.73
2017-08-18T16:57:58.231Z,14.90
2017-08-18T17:00:26.570Z,5.93
2017-08-18T17:02:55.720Z,8.03
2017-08-18T17:05:24.068Z,7.23
2017-08-18T17:07:53.157Z,6.90
2017-08-18T17:10:21.961Z,9.77
2017-08-18T17:12:50.302Z,6.47
2017-08-18T17:15:18.663Z,10.27
2017-08-18T17:17:47.418Z,4.93
2017-08-18T17:20:15.803Z,6.77
2017-08-18T17:22:44.147Z,17.67
2017-08-18T17:25:12.968Z,5.77
2017-08-18T17:27:41.313Z,8.07
2017-08-18T17:30:09.670Z,8.10
2017-08-18T17:32:38.519Z,11.23
2017-08-18T17:35:06.874Z,6.97
2017-08-18T17:37:35.984Z,10.80
2017-08-18T17:40:04.615Z,8.93
2017-08-18T17:42:32.951Z,9.30
2017-08-18T17:45:01.282Z,9.83
2017-08-18T17:47:30.224Z,10.50
2017-08-18T17:49:58.583Z,12.80
2017-08-18T17:52:27.702Z,10.13
2017-08-18T17:54:56.706Z,12.73
2017-08-18T17:57:25.079Z,7.47
2017-08-18T17:59:53.422Z,7.30
2017-08-18T18:02:22.050Z,8.83
2017-08-18T18:04:50.398Z,9.53
2017-08-18T18:07:18.735Z,16.20
2017-08-18T18:09:47.668Z,21.37
2017-08-18T18:12:16.799Z,11.13
2017-08-18T18:14:45.156Z,10.27
2017-08-18T18:17:13.795Z,13.67
2017-08-18T18:19:42.162Z,14.00
2017-08-18T18:22:10.637Z,9.30
2017-08-18T18:24:39.303Z,12.23
2017-08-18T18:27:07.642Z,26.53
2017-08-18T18:29:35.982Z,12.30
2017-08-18T18:32:04.744Z,11.17
2017-08-18T18:34:33.095Z,16.17
2017-08-18T18:37:02.247Z,16.77
2017-08-18T18:39:31.017Z,11.13
2017-08-18T18:42:00.118Z,15.27
2017-08-18T18:44:30.603Z,14.80
2017-08-18T18:46:59.316Z,15.27
2017-08-18T18:49:27.683Z,14.73
2017-08-18T18:51:56.063Z,18.33
2017-08-18T18:54:25.048Z,16.20
2017-08-18T18:56:54.169Z,13.60
2017-08-18T18:59:22.548Z,19.50
2017-08-18T19:01:51.257Z,25.70
2017-08-18T19:04:19.643Z,16.83
2017-08-18T19:06:48.035Z,16.50
2017-08-18T19:09:16.630Z,17.80
2017-08-18T19:11:44.991Z,12.40
2017-08-18T19:14:13.355Z,12.50
2017-08-18T19:16:41.955Z,14.20
2017-08-18T19:19:10.323Z,13.03
2017-08-18T19:21:38.694Z,16.60
2017-08-18T19:24:07.281Z,15.63
2017-08-18T19:26:35.652Z,17.03
2017-08-18T19:29:03.987Z,13.47
2017-08-18T19:31:32.517Z,15.07
2017-08-18T19:34:00.874Z,16.60
2017-08-18T19:36:29.223Z,14.37
2017-08-18T19:38:58.938Z,17.97
2017-08-18T19:41:28.083Z,17.50
2017-08-18T19:43:56.440Z,16.90
2017-08-18T19:46:25.146Z,14.90
2017-08-18T19:48:53.507Z,17.27
2017-08-18T19:51:21.864Z,14.80
2017-08-18T19:53:50.582Z,21.10
2017-08-18T19:56:18.989Z,11.20
2017-08-18T19:58:47.379Z,10.47
2017-08-18T20:01:15.980Z,9.67
2017-08-18T20:03:44.321Z,7.20
2017-08-18T20:06:12.683Z,6.67
2017-08-18T20:08:41.283Z,7.17
2017-08-18T20:11:09.618Z,9.17
2017-08-18T20:13:37.966Z,7.10
2017-08-18T20:16:06.734Z,8.43
2017-08-18T20:18:35.102Z,7.30
2017-08-18T20:21:03.452Z,6.90
2017-08-18T20:23:32.318Z,6.47
2017-08-18T20:26:00.712Z,6.30
2017-08-18T20:28:29.837Z,7.20
2017-08-18T20:30:58.401Z,6.23
2017-08-18T20:33:26.802Z,8.33
2017-08-18T20:35:55.156Z,7.07
2017-08-18T20:38:23.893Z,6.53
2017-08-18T20:40:52.246Z,5.43
2017-08-18T20:43:20.606Z,6.20
2017-08-18T20:45:49.288Z,6.80
2017-08-18T20:48:17.651Z,6.17
2017-08-18T20:50:46.004Z,6.00
2017-08-18T20:53:14.767Z,10.73
2017-08-18T20:55:43.110Z,5.47
2017-08-18T20:58:11.481Z,6.50
2017-08-18T21:00:40.212Z,5.87
2017-08-18T21:03:08.553Z,5.80
2017-08-18T21:05:37.690Z,12.77
2017-08-18T21:08:06.367Z,7.30
2017-08-18T21:10:34.710Z,13.00
2017-08-18T21:13:03.065Z,8.33
2017-08-18T21:15:31.920Z,6.57
2017-08-18T21:18:00.289Z,4.90
2017-08-18T21:20:28.672Z,6.83
2017-08-18T21:22:57.353Z,6.40
2017-08-18T21:25:25.764Z,12.70
2017-08-18T21:27:54.117Z,6.87
2017-08-18T21:30:23.001Z,8.53
2017-08-18T21:32:51.352Z,9.23
2017-08-18T21:35:20.474Z,7.10
2017-08-18T21:37:49.026Z,8.33
2017-08-18T21:40:17.378Z,6.60
2017-08-18T21:42:45.774Z,6.80
2017-08-18T21:45:14.522Z,10.50
2017-08-18T21:47:42.915Z,8.03
2017-08-18T21:50:11.283Z,8.07
2017-08-18T21:52:39.869Z,20.73
2017-08-18T21:55:08.207Z,11.47
2017-08-18T21:57:36.556Z,10.83
2017-08-18T22:00:05.207Z,6.83
2017-08-18T22:02:33.575Z,11.30
2017-08-18T22:05:01.937Z,11.30
2017-08-18T22:07:30.509Z,11.37
2017-08-18T22:09:59.640Z,7.60
2017-08-18T22:12:27.976Z,7.63
2017-08-18T22:14:56.708Z,7.07
2017-08-18T22:17:25.071Z,8.23
2017-08-18T22:19:53.418Z,7.10
2017-08-18T22:22:21.949Z,17.30
2017-08-18T22:24:50.308Z,9.13
2017-08-18T22:27:18.657Z,7.20
2017-08-18T22:29:47.239Z,10.53
2017-08-18T22:32:15.601Z,10.83
2017-08-18T22:34:43.943Z,8.20
2017-08-18T22:37:12.826Z,10.17
2017-08-18T22:39:41.195Z,13.13
2017-08-18T22:42:10.311Z,10.37
2017-08-18T22:44:39.241Z,9.17
2017-08-18T22:47:07.596Z,13.83
2017-08-18T22:49:35.978Z,20.43
2017-08-18T22:52:04.536Z,8.80
2017-08-18T22:54:32.885Z,17.23
2017-08-18T22:57:01.262Z,16.00
2017-08-18T22:59:29.947Z,14.17
2017-08-18T23:01:58.312Z,22.53
2017-08-18T23:04:26.644Z,19.10
2017-08-18T23:06:55.439Z,16.47
2017-08-18T23:09:23.869Z,13.53
2017-08-18T23:11:52.227Z,14.37
2017-08-18T23:14:20.883Z,19.70
2017-08-18T23:16:49.263Z,15.10
2017-08-18T23:19:17.627Z,18.87
2017-08-18T23:21:46.743Z,14.67
2017-08-18T23:24:15.115Z,26.03
2017-08-18T23:26:43.463Z,22.23
2017-08-18T23:29:12.166Z,21.57
2017-08-18T23:31:40.509Z,29.13
2017-08-18T23:34:08.851Z,30.23
2017-08-18T23:36:37.614Z,29.37
2017-08-18T23:39:06.006Z,33.20
2017-08-18T23:41:34.351Z,32.90
2017-08-18T23:44:03.218Z,29.77
2017-08-18T23:46:31.566Z,28.60
2017-08-18T23:48:59.923Z,29.83
2017-08-18T23:51:28.468Z,37.90
2017-08-18T23:53:56.842Z,34.10
2017-08-18T23:56:25.240Z,37.30
2017-08-18T23:58:53.780Z,40.63
